sensor_id;sensor_type;location;lat;lon;timestamp;P1;durP1;ratioP1;P2;durP2;ratioP2
26211;SDS011;13951;49.516;6.094;2023-04-06T00:01:00;6.80;;;2.83;;
26211;SDS011;13951;49.516;6.094;2023-04-06T00:03:33;8.67;;;3.03;;
26211;SDS011;13951;49.516;6.094;2023-04-06T00:06:06;3.93;;;2.80;;
26211;SDS011;13951;49.516;6.094;2023-04-06T00:08:39;6.90;;;3.03;;
26211;SDS011;13951;49.516;6.094;2023-04-06T00:11:13;5.27;;;2.90;;
26211;SDS011;13951;49.516;6.094;2023-04-06T00:13:46;3.70;;;2.80;;
26211;SDS011;13951;49.516;6.094;2023-04-06T00:16:19;4.43;;;2.20;;
26211;SDS011;13951;49.516;6.094;2023-04-06T00:18:53;3.43;;;2.67;;
26211;SDS011;13951;49.516;6.094;2023-04-06T00:21:26;2.83;;;2.10;;
26211;SDS011;13951;49.516;6.094;2023-04-06T00:23:59;7.80;;;3.20;;
26211;SDS011;13951;49.516;6.094;2023-04-06T00:26:32;5.53;;;2.97;;
26211;SDS011;13951;49.516;6.094;2023-04-06T00:29:05;5.23;;;3.10;;
26211;SDS011;13951;49.516;6.094;2023-04-06T00:31:38;5.30;;;2.60;;
26211;SDS011;13951;49.516;6.094;2023-04-06T00:34:11;6.53;;;3.30;;
26211;SDS011;13951;49.516;6.094;2023-04-06T00:36:44;4.47;;;2.60;;
26211;SDS011;13951;49.516;6.094;2023-04-06T00:39:17;4.93;;;2.80;;
26211;SDS011;13951;49.516;6.094;2023-04-06T00:41:52;5.87;;;3.10;;
26211;SDS011;13951;49.516;6.094;2023-04-06T00:44:26;4.47;;;3.03;;
26211;SDS011;13951;49.516;6.094;2023-04-06T00:47:00;7.67;;;3.23;;
26211;SDS011;13951;49.516;6.094;2023-04-06T00:49:32;4.87;;;2.93;;
26211;SDS011;13951;49.516;6.094;2023-04-06T00:52:06;5.23;;;2.90;;
26211;SDS011;13951;49.516;6.094;2023-04-06T00:54:39;4.13;;;2.90;;
26211;SDS011;13951;49.516;6.094;2023-04-06T00:57:13;5.10;;;2.70;;
26211;SDS011;13951;49.516;6.094;2023-04-06T00:59:47;5.93;;;2.90;;
26211;SDS011;13951;49.516;6.094;2023-04-06T01:02:20;8.20;;;3.23;;
26211;SDS011;13951;49.516;6.094;2023-04-06T01:04:56;7.10;;;2.70;;
26211;SDS011;13951;49.516;6.094;2023-04-06T01:07:39;8.40;;;2.97;;
26211;SDS011;13951;49.516;6.094;2023-04-06T01:10:23;5.10;;;2.67;;
26211;SDS011;13951;49.516;6.094;2023-04-06T01:13:02;6.27;;;3.20;;
26211;SDS011;13951;49.516;6.094;2023-04-06T01:16:10;5.33;;;3.27;;
26211;SDS011;13951;49.516;6.094;2023-04-06T01:19:13;5.03;;;3.00;;
26211;SDS011;13951;49.516;6.094;2023-04-06T01:21:50;4.50;;;3.00;;
26211;SDS011;13951;49.516;6.094;2023-04-06T01:24:34;5.37;;;3.03;;
26211;SDS011;13951;49.516;6.094;2023-04-06T01:27:13;6.67;;;2.63;;
26211;SDS011;13951;49.516;6.094;2023-04-06T01:30:01;5.10;;;2.47;;
26211;SDS011;13951;49.516;6.094;2023-04-06T01:33:01;4.80;;;3.00;;
26211;SDS011;13951;49.516;6.094;2023-04-06T01:35:44;6.40;;;3.00;;
26211;SDS011;13951;49.516;6.094;2023-04-06T01:38:23;5.07;;;2.67;;
26211;SDS011;13951;49.516;6.094;2023-04-06T01:40:56;6.37;;;2.83;;
26211;SDS011;13951;49.516;6.094;2023-04-06T01:43:31;6.13;;;3.20;;
26211;SDS011;13951;49.516;6.094;2023-04-06T01:46:10;5.33;;;2.97;;
26211;SDS011;13951;49.516;6.094;2023-04-06T01:48:46;4.33;;;2.77;;
26211;SDS011;13951;49.516;6.094;2023-04-06T01:51:27;7.43;;;3.00;;
26211;SDS011;13951;49.516;6.094;2023-04-06T01:54:03;6.73;;;2.90;;
26211;SDS011;13951;49.516;6.094;2023-04-06T01:56:49;5.63;;;3.00;;
26211;SDS011;13951;49.516;6.094;2023-04-06T01:59:35;4.27;;;2.70;;
26211;SDS011;13951;49.516;6.094;2023-04-06T02:02:14;3.57;;;2.67;;
26211;SDS011;13951;49.516;6.094;2023-04-06T02:04:56;4.20;;;2.67;;
26211;SDS011;13951;49.516;6.094;2023-04-06T02:07:30;4.20;;;2.97;;
26211;SDS011;13951;49.516;6.094;2023-04-06T02:10:03;4.80;;;2.80;;
26211;SDS011;13951;49.516;6.094;2023-04-06T02:12:41;4.23;;;2.67;;
26211;SDS011;13951;49.516;6.094;2023-04-06T02:15:17;4.60;;;2.97;;
26211;SDS011;13951;49.516;6.094;2023-04-06T02:17:50;4.17;;;2.73;;
26211;SDS011;13951;49.516;6.094;2023-04-06T02:20:23;7.43;;;3.30;;
26211;SDS011;13951;49.516;6.094;2023-04-06T02:22:56;5.80;;;2.80;;
26211;SDS011;13951;49.516;6.094;2023-04-06T02:25:30;5.33;;;2.50;;
26211;SDS011;13951;49.516;6.094;2023-04-06T02:28:03;3.83;;;2.40;;
26211;SDS011;13951;49.516;6.094;2023-04-06T02:30:36;5.57;;;2.90;;
26211;SDS011;13951;49.516;6.094;2023-04-06T02:33:09;6.10;;;3.00;;
26211;SDS011;13951;49.516;6.094;2023-04-06T02:35:47;5.77;;;3.13;;
26211;SDS011;13951;49.516;6.094;2023-04-06T02:38:20;6.23;;;2.97;;
26211;SDS011;13951;49.516;6.094;2023-04-06T02:40:53;6.50;;;3.13;;
26211;SDS011;13951;49.516;6.094;2023-04-06T02:43:28;4.50;;;2.87;;
26211;SDS011;13951;49.516;6.094;2023-04-06T02:46:10;6.90;;;3.40;;
26211;SDS011;13951;49.516;6.094;2023-04-06T02:48:44;5.40;;;3.07;;
26211;SDS011;13951;49.516;6.094;2023-04-06T02:51:18;3.90;;;2.40;;
26211;SDS011;13951;49.516;6.094;2023-04-06T02:53:57;4.33;;;3.03;;
26211;SDS011;13951;49.516;6.094;2023-04-06T02:56:30;4.60;;;2.83;;
26211;SDS011;13951;49.516;6.094;2023-04-06T02:59:03;4.13;;;2.53;;
26211;SDS011;13951;49.516;6.094;2023-04-06T03:01:38;5.23;;;2.90;;
26211;SDS011;13951;49.516;6.094;2023-04-06T03:04:11;7.10;;;2.90;;
26211;SDS011;13951;49.516;6.094;2023-04-06T03:06:44;6.20;;;3.53;;
26211;SDS011;13951;49.516;6.094;2023-04-06T03:09:27;4.80;;;3.10;;
26211;SDS011;13951;49.516;6.094;2023-04-06T03:12:00;4.03;;;2.50;;
26211;SDS011;13951;49.516;6.094;2023-04-06T03:14:36;4.87;;;3.03;;
26211;SDS011;13951;49.516;6.094;2023-04-06T03:17:09;5.03;;;2.73;;
26211;SDS011;13951;49.516;6.094;2023-04-06T03:19:42;5.47;;;2.90;;
26211;SDS011;13951;49.516;6.094;2023-04-06T03:22:17;5.20;;;3.37;;
26211;SDS011;13951;49.516;6.094;2023-04-06T03:24:50;4.93;;;2.67;;
26211;SDS011;13951;49.516;6.094;2023-04-06T03:27:23;6.57;;;3.20;;
26211;SDS011;13951;49.516;6.094;2023-04-06T03:29:57;3.90;;;2.57;;
26211;SDS011;13951;49.516;6.094;2023-04-06T03:32:36;3.57;;;2.60;;
26211;SDS011;13951;49.516;6.094;2023-04-06T03:35:09;4.67;;;2.77;;
26211;SDS011;13951;49.516;6.094;2023-04-06T03:37:42;4.70;;;3.20;;
26211;SDS011;13951;49.516;6.094;2023-04-06T03:40:15;4.60;;;2.93;;
26211;SDS011;13951;49.516;6.094;2023-04-06T03:42:48;4.80;;;2.70;;
26211;SDS011;13951;49.516;6.094;2023-04-06T03:45:22;4.40;;;2.50;;
26211;SDS011;13951;49.516;6.094;2023-04-06T03:47:55;6.13;;;3.20;;
26211;SDS011;13951;49.516;6.094;2023-04-06T03:50:28;5.67;;;3.23;;
26211;SDS011;13951;49.516;6.094;2023-04-06T03:53:01;7.83;;;3.63;;
26211;SDS011;13951;49.516;6.094;2023-04-06T03:55:38;6.40;;;3.20;;
26211;SDS011;13951;49.516;6.094;2023-04-06T03:58:11;4.30;;;3.27;;
26211;SDS011;13951;49.516;6.094;2023-04-06T04:00:44;7.40;;;3.17;;
26211;SDS011;13951;49.516;6.094;2023-04-06T04:03:18;6.53;;;3.27;;
26211;SDS011;13951;49.516;6.094;2023-04-06T04:05:51;5.47;;;3.10;;
26211;SDS011;13951;49.516;6.094;2023-04-06T04:08:25;4.53;;;3.27;;
26211;SDS011;13951;49.516;6.094;2023-04-06T04:10:58;6.20;;;3.33;;
26211;SDS011;13951;49.516;6.094;2023-04-06T04:13:31;3.67;;;2.87;;
26211;SDS011;13951;49.516;6.094;2023-04-06T04:16:07;6.90;;;3.60;;
26211;SDS011;13951;49.516;6.094;2023-04-06T04:18:40;5.13;;;3.50;;
26211;SDS011;13951;49.516;6.094;2023-04-06T04:21:15;6.17;;;3.50;;
26211;SDS011;13951;49.516;6.094;2023-04-06T04:23:48;8.53;;;3.77;;
26211;SDS011;13951;49.516;6.094;2023-04-06T04:26:21;8.20;;;4.13;;
26211;SDS011;13951;49.516;6.094;2023-04-06T04:28:54;6.80;;;3.60;;
26211;SDS011;13951;49.516;6.094;2023-04-06T04:31:27;6.17;;;3.63;;
26211;SDS011;13951;49.516;6.094;2023-04-06T04:34:04;6.67;;;3.30;;
26211;SDS011;13951;49.516;6.094;2023-04-06T04:36:39;6.10;;;3.00;;
26211;SDS011;13951;49.516;6.094;2023-04-06T04:39:18;4.30;;;2.60;;
26211;SDS011;13951;49.516;6.094;2023-04-06T04:41:56;5.30;;;3.03;;
26211;SDS011;13951;49.516;6.094;2023-04-06T04:44:29;5.40;;;3.17;;
26211;SDS011;13951;49.516;6.094;2023-04-06T04:47:02;6.90;;;3.40;;
26211;SDS011;13951;49.516;6.094;2023-04-06T04:49:45;4.90;;;3.20;;
26211;SDS011;13951;49.516;6.094;2023-04-06T04:52:23;4.90;;;3.23;;
26211;SDS011;13951;49.516;6.094;2023-04-06T04:55:16;6.57;;;3.17;;
26211;SDS011;13951;49.516;6.094;2023-04-06T04:57:52;5.77;;;3.27;;
26211;SDS011;13951;49.516;6.094;2023-04-06T05:00:31;6.53;;;3.90;;
26211;SDS011;13951;49.516;6.094;2023-04-06T05:03:05;7.87;;;3.53;;
26211;SDS011;13951;49.516;6.094;2023-04-06T05:05:41;6.07;;;3.37;;
26211;SDS011;13951;49.516;6.094;2023-04-06T05:08:15;6.27;;;3.50;;
26211;SDS011;13951;49.516;6.094;2023-04-06T05:10:51;7.80;;;4.13;;
26211;SDS011;13951;49.516;6.094;2023-04-06T05:13:25;8.83;;;4.47;;
26211;SDS011;13951;49.516;6.094;2023-04-06T05:16:00;5.70;;;3.50;;
26211;SDS011;13951;49.516;6.094;2023-04-06T05:18:36;5.50;;;3.73;;
26211;SDS011;13951;49.516;6.094;2023-04-06T05:21:11;7.67;;;3.87;;
26211;SDS011;13951;49.516;6.094;2023-04-06T05:23:57;10.20;;;4.23;;
26211;SDS011;13951;49.516;6.094;2023-04-06T05:26:31;7.30;;;4.20;;
26211;SDS011;13951;49.516;6.094;2023-04-06T05:29:10;8.33;;;4.50;;
26211;SDS011;13951;49.516;6.094;2023-04-06T05:31:44;7.67;;;4.20;;
26211;SDS011;13951;49.516;6.094;2023-04-06T05:34:18;9.17;;;4.47;;
26211;SDS011;13951;49.516;6.094;2023-04-06T05:36:52;8.90;;;4.43;;
26211;SDS011;13951;49.516;6.094;2023-04-06T05:39:29;11.43;;;4.77;;
26211;SDS011;13951;49.516;6.094;2023-04-06T05:42:03;12.37;;;5.93;;
26211;SDS011;13951;49.516;6.094;2023-04-06T05:44:51;11.27;;;5.80;;
26211;SDS011;13951;49.516;6.094;2023-04-06T05:47:25;13.40;;;5.33;;
26211;SDS011;13951;49.516;6.094;2023-04-06T05:50:06;10.50;;;5.77;;
26211;SDS011;13951;49.516;6.094;2023-04-06T05:52:43;10.87;;;5.83;;
26211;SDS011;13951;49.516;6.094;2023-04-06T05:55:21;12.87;;;5.43;;
26211;SDS011;13951;49.516;6.094;2023-04-06T05:58:01;11.67;;;5.40;;
26211;SDS011;13951;49.516;6.094;2023-04-06T06:00:34;9.10;;;4.63;;
26211;SDS011;13951;49.516;6.094;2023-04-06T06:03:10;12.43;;;4.80;;
26211;SDS011;13951;49.516;6.094;2023-04-06T06:05:47;10.47;;;5.53;;
26211;SDS011;13951;49.516;6.094;2023-04-06T06:08:26;6.87;;;4.33;;
26211;SDS011;13951;49.516;6.094;2023-04-06T06:11:01;11.03;;;4.50;;
26211;SDS011;13951;49.516;6.094;2023-04-06T06:13:35;8.47;;;4.80;;
26211;SDS011;13951;49.516;6.094;2023-04-06T06:16:08;10.13;;;5.17;;
26211;SDS011;13951;49.516;6.094;2023-04-06T06:18:47;6.67;;;3.83;;
26211;SDS011;13951;49.516;6.094;2023-04-06T06:21:21;9.10;;;5.30;;
26211;SDS011;13951;49.516;6.094;2023-04-06T06:23:54;12.00;;;5.87;;
26211;SDS011;13951;49.516;6.094;2023-04-06T06:26:28;11.50;;;5.63;;
26211;SDS011;13951;49.516;6.094;2023-04-06T06:29:01;14.87;;;6.00;;
26211;SDS011;13951;49.516;6.094;2023-04-06T06:31:39;8.60;;;5.47;;
26211;SDS011;13951;49.516;6.094;2023-04-06T06:34:12;10.63;;;5.60;;
26211;SDS011;13951;49.516;6.094;2023-04-06T06:36:47;11.90;;;6.10;;
26211;SDS011;13951;49.516;6.094;2023-04-06T06:39:22;14.80;;;6.27;;
26211;SDS011;13951;49.516;6.094;2023-04-06T06:41:55;8.27;;;5.90;;
26211;SDS011;13951;49.516;6.094;2023-04-06T06:44:47;8.47;;;5.47;;
26211;SDS011;13951;49.516;6.094;2023-04-06T06:47:20;12.67;;;6.13;;
26211;SDS011;13951;49.516;6.094;2023-04-06T06:49:53;10.20;;;6.43;;
26211;SDS011;13951;49.516;6.094;2023-04-06T06:52:26;10.77;;;6.07;;
26211;SDS011;13951;49.516;6.094;2023-04-06T06:55:01;11.40;;;6.47;;
26211;SDS011;13951;49.516;6.094;2023-04-06T06:57:33;11.93;;;5.87;;
26211;SDS011;13951;49.516;6.094;2023-04-06T07:00:07;15.20;;;6.70;;
26211;SDS011;13951;49.516;6.094;2023-04-06T07:02:44;9.03;;;6.07;;
26211;SDS011;13951;49.516;6.094;2023-04-06T07:05:17;9.87;;;5.60;;
26211;SDS011;13951;49.516;6.094;2023-04-06T07:08:01;17.97;;;6.30;;
26211;SDS011;13951;49.516;6.094;2023-04-06T07:10:34;12.13;;;6.27;;
26211;SDS011;13951;49.516;6.094;2023-04-06T07:13:07;13.97;;;6.57;;
26211;SDS011;13951;49.516;6.094;2023-04-06T07:15:41;14.57;;;6.10;;
26211;SDS011;13951;49.516;6.094;2023-04-06T07:18:14;10.83;;;5.80;;
26211;SDS011;13951;49.516;6.094;2023-04-06T07:20:48;13.97;;;6.67;;
26211;SDS011;13951;49.516;6.094;2023-04-06T07:23:21;11.57;;;5.47;;
26211;SDS011;13951;49.516;6.094;2023-04-06T07:25:54;11.83;;;5.73;;
26211;SDS011;13951;49.516;6.094;2023-04-06T07:28:27;10.97;;;5.67;;
26211;SDS011;13951;49.516;6.094;2023-04-06T07:31:01;9.93;;;5.77;;
26211;SDS011;13951;49.516;6.094;2023-04-06T07:33:34;8.83;;;5.50;;
26211;SDS011;13951;49.516;6.094;2023-04-06T07:36:07;10.63;;;5.67;;
26211;SDS011;13951;49.516;6.094;2023-04-06T07:38:40;12.43;;;6.00;;
26211;SDS011;13951;49.516;6.094;2023-04-06T07:41:13;11.00;;;5.43;;
26211;SDS011;13951;49.516;6.094;2023-04-06T07:43:47;12.60;;;5.73;;
26211;SDS011;13951;49.516;6.094;2023-04-06T07:46:21;8.87;;;4.90;;
26211;SDS011;13951;49.516;6.094;2023-04-06T07:48:56;13.53;;;6.00;;
26211;SDS011;13951;49.516;6.094;2023-04-06T07:51:31;7.87;;;4.90;;
26211;SDS011;13951;49.516;6.094;2023-04-06T07:54:05;9.80;;;6.03;;
26211;SDS011;13951;49.516;6.094;2023-04-06T07:56:39;9.77;;;5.20;;
26211;SDS011;13951;49.516;6.094;2023-04-06T07:59:12;17.20;;;6.50;;
26211;SDS011;13951;49.516;6.094;2023-04-06T08:01:45;11.00;;;6.00;;
26211;SDS011;13951;49.516;6.094;2023-04-06T08:04:19;12.00;;;5.43;;
26211;SDS011;13951;49.516;6.094;2023-04-06T08:06:53;10.27;;;5.50;;
26211;SDS011;13951;49.516;6.094;2023-04-06T08:09:26;11.00;;;6.03;;
26211;SDS011;13951;49.516;6.094;2023-04-06T08:11:59;10.03;;;5.57;;
26211;SDS011;13951;49.516;6.094;2023-04-06T08:14:32;9.63;;;5.33;;
26211;SDS011;13951;49.516;6.094;2023-04-06T08:17:05;9.57;;;5.43;;
26211;SDS011;13951;49.516;6.094;2023-04-06T08:19:38;11.03;;;5.07;;
26211;SDS011;13951;49.516;6.094;2023-04-06T08:22:11;9.90;;;5.37;;
26211;SDS011;13951;49.516;6.094;2023-04-06T08:24:44;12.20;;;5.73;;
26211;SDS011;13951;49.516;6.094;2023-04-06T08:27:16;13.57;;;5.90;;
26211;SDS011;13951;49.516;6.094;2023-04-06T08:29:50;10.77;;;5.37;;
26211;SDS011;13951;49.516;6.094;2023-04-06T08:32:24;8.83;;;4.93;;
26211;SDS011;13951;49.516;6.094;2023-04-06T08:34:57;13.70;;;5.93;;
26211;SDS011;13951;49.516;6.094;2023-04-06T08:37:30;11.07;;;5.47;;
26211;SDS011;13951;49.516;6.094;2023-04-06T08:40:04;9.63;;;5.20;;
26211;SDS011;13951;49.516;6.094;2023-04-06T08:42:42;10.60;;;5.53;;
26211;SDS011;13951;49.516;6.094;2023-04-06T08:45:19;12.10;;;5.23;;
26211;SDS011;13951;49.516;6.094;2023-04-06T08:47:53;14.47;;;5.97;;
26211;SDS011;13951;49.516;6.094;2023-04-06T08:50:29;9.33;;;5.73;;
26211;SDS011;13951;49.516;6.094;2023-04-06T08:53:03;12.17;;;5.57;;
26211;SDS011;13951;49.516;6.094;2023-04-06T08:55:38;13.77;;;5.90;;
26211;SDS011;13951;49.516;6.094;2023-04-06T08:58:12;10.87;;;6.07;;
26211;SDS011;13951;49.516;6.094;2023-04-06T09:01:06;10.63;;;5.90;;
26211;SDS011;13951;49.516;6.094;2023-04-06T09:03:41;10.97;;;5.97;;
26211;SDS011;13951;49.516;6.094;2023-04-06T09:06:15;11.30;;;5.57;;
26211;SDS011;13951;49.516;6.094;2023-04-06T09:08:48;9.90;;;5.93;;
26211;SDS011;13951;49.516;6.094;2023-04-06T09:11:22;10.00;;;6.33;;
26211;SDS011;13951;49.516;6.094;2023-04-06T09:13:55;10.70;;;5.60;;
26211;SDS011;13951;49.516;6.094;2023-04-06T09:16:38;10.30;;;5.20;;
26211;SDS011;13951;49.516;6.094;2023-04-06T09:19:14;10.97;;;5.80;;
26211;SDS011;13951;49.516;6.094;2023-04-06T09:21:46;8.93;;;5.77;;
26211;SDS011;13951;49.516;6.094;2023-04-06T09:24:20;12.90;;;6.03;;
26211;SDS011;13951;49.516;6.094;2023-04-06T09:26:58;8.30;;;5.47;;
26211;SDS011;13951;49.516;6.094;2023-04-06T09:29:30;10.83;;;6.23;;
26211;SDS011;13951;49.516;6.094;2023-04-06T09:32:04;11.00;;;5.97;;
26211;SDS011;13951;49.516;6.094;2023-04-06T09:34:38;11.07;;;6.20;;
26211;SDS011;13951;49.516;6.094;2023-04-06T09:37:15;11.23;;;5.30;;
26211;SDS011;13951;49.516;6.094;2023-04-06T09:39:48;9.43;;;5.57;;
26211;SDS011;13951;49.516;6.094;2023-04-06T09:42:24;8.13;;;5.13;;
26211;SDS011;13951;49.516;6.094;2023-04-06T09:45:00;7.07;;;4.97;;
26211;SDS011;13951;49.516;6.094;2023-04-06T09:47:35;9.20;;;5.70;;
26211;SDS011;13951;49.516;6.094;2023-04-06T09:50:09;10.53;;;5.30;;
26211;SDS011;13951;49.516;6.094;2023-04-06T09:52:47;10.60;;;6.17;;
26211;SDS011;13951;49.516;6.094;2023-04-06T09:55:30;10.83;;;5.73;;
26211;SDS011;13951;49.516;6.094;2023-04-06T09:58:15;8.67;;;5.17;;
26211;SDS011;13951;49.516;6.094;2023-04-06T10:06:18;8.20;;;5.10;;
26211;SDS011;13951;49.516;6.094;2023-04-06T10:08:55;10.47;;;5.77;;
26211;SDS011;13951;49.516;6.094;2023-04-06T10:11:29;10.67;;;5.30;;
26211;SDS011;13951;49.516;6.094;2023-04-06T10:14:03;8.27;;;4.87;;
26211;SDS011;13951;49.516;6.094;2023-04-06T10:16:36;10.83;;;5.40;;
26211;SDS011;13951;49.516;6.094;2023-04-06T10:19:10;10.27;;;5.57;;
26211;SDS011;13951;49.516;6.094;2023-04-06T10:21:49;10.13;;;5.27;;
26211;SDS011;13951;49.516;6.094;2023-04-06T10:24:25;8.63;;;4.90;;
26211;SDS011;13951;49.516;6.094;2023-04-06T10:27:01;8.33;;;5.03;;
26211;SDS011;13951;49.516;6.094;2023-04-06T10:29:44;8.33;;;3.97;;
26211;SDS011;13951;49.516;6.094;2023-04-06T10:32:31;6.03;;;3.87;;
26211;SDS011;13951;49.516;6.094;2023-04-06T10:35:13;4.77;;;3.30;;
26211;SDS011;13951;49.516;6.094;2023-04-06T10:37:52;7.00;;;3.00;;
26211;SDS011;13951;49.516;6.094;2023-04-06T10:40:25;5.10;;;2.90;;
26211;SDS011;13951;49.516;6.094;2023-04-06T10:43:09;4.60;;;2.70;;
26211;SDS011;13951;49.516;6.094;2023-04-06T10:45:56;4.10;;;2.70;;
26211;SDS011;13951;49.516;6.094;2023-04-06T10:48:42;5.23;;;2.87;;
26211;SDS011;13951;49.516;6.094;2023-04-06T10:51:17;7.93;;;3.03;;
26211;SDS011;13951;49.516;6.094;2023-04-06T10:53:51;6.07;;;3.33;;
26211;SDS011;13951;49.516;6.094;2023-04-06T10:56:25;4.33;;;2.67;;
26211;SDS011;13951;49.516;6.094;2023-04-06T10:59:00;6.03;;;2.93;;
26211;SDS011;13951;49.516;6.094;2023-04-06T11:01:33;33.57;;;17.67;;
26211;SDS011;13951;49.516;6.094;2023-04-06T11:04:06;6.37;;;4.10;;
26211;SDS011;13951;49.516;6.094;2023-04-06T11:06:42;5.10;;;3.00;;
26211;SDS011;13951;49.516;6.094;2023-04-06T11:09:23;6.70;;;3.43;;
26211;SDS011;13951;49.516;6.094;2023-04-06T11:11:58;5.70;;;3.00;;
26211;SDS011;13951;49.516;6.094;2023-04-06T11:14:31;5.87;;;2.73;;
26211;SDS011;13951;49.516;6.094;2023-04-06T11:17:03;8.63;;;3.10;;
26211;SDS011;13951;49.516;6.094;2023-04-06T11:19:36;4.73;;;2.80;;
26211;SDS011;13951;49.516;6.094;2023-04-06T11:22:09;4.23;;;3.07;;
26211;SDS011;13951;49.516;6.094;2023-04-06T11:24:42;3.83;;;2.60;;
26211;SDS011;13951;49.516;6.094;2023-04-06T11:27:15;4.20;;;2.40;;
26211;SDS011;13951;49.516;6.094;2023-04-06T11:29:48;6.23;;;2.63;;
26211;SDS011;13951;49.516;6.094;2023-04-06T11:32:22;7.10;;;2.60;;
26211;SDS011;13951;49.516;6.094;2023-04-06T11:34:57;4.67;;;2.80;;
26211;SDS011;13951;49.516;6.094;2023-04-06T11:37:30;4.47;;;2.63;;
26211;SDS011;13951;49.516;6.094;2023-04-06T11:40:07;4.67;;;2.80;;
26211;SDS011;13951;49.516;6.094;2023-04-06T11:42:40;4.90;;;2.77;;
26211;SDS011;13951;49.516;6.094;2023-04-06T11:45:14;4.50;;;2.43;;
26211;SDS011;13951;49.516;6.094;2023-04-06T11:47:55;5.93;;;3.30;;
26211;SDS011;13951;49.516;6.094;2023-04-06T11:50:32;4.17;;;2.77;;
26211;SDS011;13951;49.516;6.094;2023-04-06T11:53:07;4.53;;;2.93;;
26211;SDS011;13951;49.516;6.094;2023-04-06T11:55:40;2.87;;;2.10;;
26211;SDS011;13951;49.516;6.094;2023-04-06T11:58:17;3.10;;;2.10;;
26211;SDS011;13951;49.516;6.094;2023-04-06T12:00:49;2.07;;;1.87;;
26211;SDS011;13951;49.516;6.094;2023-04-06T12:03:22;3.87;;;2.10;;
26211;SDS011;13951;49.516;6.094;2023-04-06T12:05:55;2.37;;;1.70;;
26211;SDS011;13951;49.516;6.094;2023-04-06T12:08:31;3.67;;;1.70;;
26211;SDS011;13951;49.516;6.094;2023-04-06T12:11:03;2.27;;;1.60;;
26211;SDS011;13951;49.516;6.094;2023-04-06T12:13:36;2.03;;;1.40;;
26211;SDS011;13951;49.516;6.094;2023-04-06T12:16:09;3.03;;;1.60;;
26211;SDS011;13951;49.516;6.094;2023-04-06T12:18:42;2.40;;;1.67;;
26211;SDS011;13951;49.516;6.094;2023-04-06T12:21:15;2.30;;;1.93;;
26211;SDS011;13951;49.516;6.094;2023-04-06T12:23:47;1.40;;;1.30;;
26211;SDS011;13951;49.516;6.094;2023-04-06T12:26:20;3.73;;;1.77;;
26211;SDS011;13951;49.516;6.094;2023-04-06T12:28:53;2.20;;;1.50;;
26211;SDS011;13951;49.516;6.094;2023-04-06T12:31:26;2.97;;;1.47;;
26211;SDS011;13951;49.516;6.094;2023-04-06T12:33:59;3.43;;;1.80;;
26211;SDS011;13951;49.516;6.094;2023-04-06T12:36:34;2.17;;;1.90;;
26211;SDS011;13951;49.516;6.094;2023-04-06T12:39:07;2.37;;;1.50;;
26211;SDS011;13951;49.516;6.094;2023-04-06T12:41:40;2.87;;;1.87;;
26211;SDS011;13951;49.516;6.094;2023-04-06T12:44:13;2.77;;;1.90;;
26211;SDS011;13951;49.516;6.094;2023-04-06T12:46:46;3.30;;;1.80;;
26211;SDS011;13951;49.516;6.094;2023-04-06T12:49:18;3.60;;;1.90;;
26211;SDS011;13951;49.516;6.094;2023-04-06T12:51:51;3.23;;;1.97;;
26211;SDS011;13951;49.516;6.094;2023-04-06T12:54:24;2.37;;;2.00;;
26211;SDS011;13951;49.516;6.094;2023-04-06T12:57:32;2.47;;;1.80;;
26211;SDS011;13951;49.516;6.094;2023-04-06T13:00:05;2.60;;;1.80;;
26211;SDS011;13951;49.516;6.094;2023-04-06T13:02:40;3.50;;;2.10;;
26211;SDS011;13951;49.516;6.094;2023-04-06T13:05:19;2.63;;;1.80;;
26211;SDS011;13951;49.516;6.094;2023-04-06T13:07:52;3.40;;;1.60;;
26211;SDS011;13951;49.516;6.094;2023-04-06T13:10:24;2.50;;;1.70;;
26211;SDS011;13951;49.516;6.094;2023-04-06T13:12:58;4.77;;;1.80;;
26211;SDS011;13951;49.516;6.094;2023-04-06T13:15:32;2.17;;;1.70;;
26211;SDS011;13951;49.516;6.094;2023-04-06T13:18:07;4.30;;;1.90;;
26211;SDS011;13951;49.516;6.094;2023-04-06T13:20:40;3.90;;;1.90;;
26211;SDS011;13951;49.516;6.094;2023-04-06T13:23:14;2.80;;;2.00;;
26211;SDS011;13951;49.516;6.094;2023-04-06T13:25:47;2.73;;;1.97;;
26211;SDS011;13951;49.516;6.094;2023-04-06T13:28:20;4.07;;;2.10;;
26211;SDS011;13951;49.516;6.094;2023-04-06T13:30:53;3.80;;;2.40;;
26211;SDS011;13951;49.516;6.094;2023-04-06T13:33:27;2.87;;;2.10;;
26211;SDS011;13951;49.516;6.094;2023-04-06T13:36:00;4.30;;;2.03;;
26211;SDS011;13951;49.516;6.094;2023-04-06T13:38:33;3.53;;;2.00;;
26211;SDS011;13951;49.516;6.094;2023-04-06T13:41:06;3.80;;;1.73;;
26211;SDS011;13951;49.516;6.094;2023-04-06T13:43:39;2.47;;;1.93;;
26211;SDS011;13951;49.516;6.094;2023-04-06T13:46:12;4.83;;;2.10;;
26211;SDS011;13951;49.516;6.094;2023-04-06T13:48:45;3.77;;;2.23;;
26211;SDS011;13951;49.516;6.094;2023-04-06T13:51:19;3.77;;;2.10;;
26211;SDS011;13951;49.516;6.094;2023-04-06T13:53:52;3.67;;;2.17;;
26211;SDS011;13951;49.516;6.094;2023-04-06T13:56:25;3.27;;;2.00;;
26211;SDS011;13951;49.516;6.094;2023-04-06T13:58:58;4.33;;;2.10;;
26211;SDS011;13951;49.516;6.094;2023-04-06T14:01:31;3.30;;;2.17;;
26211;SDS011;13951;49.516;6.094;2023-04-06T14:04:04;3.20;;;2.23;;
26211;SDS011;13951;49.516;6.094;2023-04-06T14:06:37;4.53;;;2.20;;
26211;SDS011;13951;49.516;6.094;2023-04-06T14:09:10;2.93;;;2.17;;
26211;SDS011;13951;49.516;6.094;2023-04-06T14:11:43;4.13;;;2.40;;
26211;SDS011;13951;49.516;6.094;2023-04-06T14:14:16;4.50;;;2.73;;
26211;SDS011;13951;49.516;6.094;2023-04-06T14:16:49;5.93;;;2.90;;
26211;SDS011;13951;49.516;6.094;2023-04-06T14:19:23;4.03;;;2.40;;
26211;SDS011;13951;49.516;6.094;2023-04-06T14:21:55;3.83;;;2.60;;
26211;SDS011;13951;49.516;6.094;2023-04-06T14:24:28;4.37;;;2.83;;
26211;SDS011;13951;49.516;6.094;2023-04-06T14:27:01;3.97;;;2.77;;
26211;SDS011;13951;49.516;6.094;2023-04-06T14:29:34;6.97;;;2.73;;
26211;SDS011;13951;49.516;6.094;2023-04-06T14:32:09;5.03;;;2.60;;
26211;SDS011;13951;49.516;6.094;2023-04-06T14:34:42;3.67;;;2.60;;
26211;SDS011;13951;49.516;6.094;2023-04-06T14:37:15;4.60;;;2.83;;
26211;SDS011;13951;49.516;6.094;2023-04-06T14:39:49;7.07;;;3.10;;
26211;SDS011;13951;49.516;6.094;2023-04-06T14:42:22;4.13;;;2.63;;
26211;SDS011;13951;49.516;6.094;2023-04-06T14:44:55;4.97;;;2.90;;
26211;SDS011;13951;49.516;6.094;2023-04-06T14:47:28;5.25;;;3.55;;
26211;SDS011;13951;49.516;6.094;2023-04-06T14:50:00;4.23;;;2.83;;
26211;SDS011;13951;49.516;6.094;2023-04-06T14:52:33;4.97;;;2.53;;
26211;SDS011;13951;49.516;6.094;2023-04-06T14:55:07;5.07;;;2.70;;
26211;SDS011;13951;49.516;6.094;2023-04-06T14:57:40;4.33;;;3.07;;
26211;SDS011;13951;49.516;6.094;2023-04-06T15:00:12;4.50;;;2.73;;
26211;SDS011;13951;49.516;6.094;2023-04-06T15:02:46;5.50;;;2.97;;
26211;SDS011;13951;49.516;6.094;2023-04-06T15:05:18;3.20;;;2.30;;
26211;SDS011;13951;49.516;6.094;2023-04-06T15:07:51;4.40;;;2.73;;
26211;SDS011;13951;49.516;6.094;2023-04-06T15:10:24;4.30;;;2.83;;
26211;SDS011;13951;49.516;6.094;2023-04-06T15:12:57;6.37;;;3.10;;
26211;SDS011;13951;49.516;6.094;2023-04-06T15:15:30;4.67;;;2.43;;
26211;SDS011;13951;49.516;6.094;2023-04-06T15:18:03;6.37;;;2.93;;
26211;SDS011;13951;49.516;6.094;2023-04-06T15:20:36;3.23;;;2.70;;
26211;SDS011;13951;49.516;6.094;2023-04-06T15:23:09;3.73;;;2.33;;
26211;SDS011;13951;49.516;6.094;2023-04-06T15:25:42;4.03;;;2.60;;
26211;SDS011;13951;49.516;6.094;2023-04-06T15:28:15;4.33;;;2.83;;
26211;SDS011;13951;49.516;6.094;2023-04-06T15:30:47;5.00;;;3.07;;
26211;SDS011;13951;49.516;6.094;2023-04-06T15:33:20;5.37;;;2.70;;
26211;SDS011;13951;49.516;6.094;2023-04-06T15:35:54;5.40;;;3.13;;
26211;SDS011;13951;49.516;6.094;2023-04-06T15:38:26;4.37;;;2.90;;